Time;durP1;ratioP1;P1;durP2;ratioP2;P2;SDS_P1;SDS_P2;PMS_P1;PMS_P2;Temp;Humidity;BMP_temperature;BMP_pressure;BME280_temperature;BME280_humidity;BME280_pressure;Samples;Min_cycle;Max_cycle;Signal;HPM_P1;HPM_P2
2021/01/30 00:00:17;;;;;;;29.93;26.70;;;;;;;;;;5044257;28;20047;-51
2021/01/30 00:02:43;;;;;;;38.63;29.60;;;;;;;;;;5044667;28;20033;-52
2021/01/30 00:05:09;;;;;;;33.60;27.53;;;;;;;;;;5042766;28;20041;-52
2021/01/30 00:07:35;;;;;;;32.37;27.27;;;;;;;;;;5038385;28;20041;-52
2021/01/30 00:10:01;;;;;;;30.77;24.30;;;;;;;;;;5042061;28;20098;-52
2021/01/30 00:12:27;;;;;;;29.30;24.23;;;;;;;;;;5041419;28;20442;-53
2021/01/30 00:14:54;;;;;;;32.13;25.27;;;;;;;;;;5043693;28;20041;-50
2021/01/30 00:17:20;;;;;;;35.83;24.47;;;;;;;;;;5029283;28;20124;-51
2021/01/30 00:19:46;;;;;;;30.13;23.00;;;;;;;;;;5044880;28;20347;-50
2021/01/30 00:22:13;;;;;;;34.23;27.60;;;;;;;;;;5045168;28;20048;-50
2021/01/30 00:24:42;;;;;;;32.00;25.03;;;;;;;;;;5043519;28;20099;-49
2021/01/30 00:27:09;;;;;;;29.47;24.57;;;;;;;;;;5026556;28;20359;-51
2021/01/30 00:29:35;;;;;;;30.17;22.80;;;;;;;;;;5039087;28;20033;-55
2021/01/30 00:32:01;;;;;;;29.40;24.30;;;;;;;;;;5044950;28;20040;-52
2021/01/30 00:34:29;;;;;;;28.87;21.80;;;;;;;;;;5031265;28;20041;-53
2021/01/30 00:36:56;;;;;;;25.83;21.70;;;;;;;;;;5030108;28;20056;-54
2021/01/30 00:39:23;;;;;;;29.33;22.43;;;;;;;;;;5034487;28;20029;-55
2021/01/30 00:41:49;;;;;;;25.80;22.00;;;;;;;;;;5035806;28;20051;-51
2021/01/30 00:44:15;;;;;;;30.97;24.17;;;;;;;;;;5047815;28;20033;-50
2021/01/30 00:46:42;;;;;;;30.00;25.67;;;;;;;;;;5046116;28;20029;-50
2021/01/30 00:49:08;;;;;;;30.90;23.77;;;;;;;;;;5041306;28;20029;-51
2021/01/30 00:51:34;;;;;;;31.80;24.77;;;;;;;;;;5035266;28;20037;-52
2021/01/30 00:54:00;;;;;;;30.60;22.83;;;;;;;;;;5032494;28;20056;-52
2021/01/30 00:56:26;;;;;;;32.03;24.60;;;;;;;;;;5029463;28;20447;-50
2021/01/30 00:58:52;;;;;;;30.37;24.70;;;;;;;;;;5030187;28;20037;-51
2021/01/30 01:01:19;;;;;;;28.73;23.43;;;;;;;;;;5029067;28;20424;-53
2021/01/30 01:03:45;;;;;;;29.97;22.90;;;;;;;;;;5022959;28;20033;-50
2021/01/30 01:06:11;;;;;;;35.27;24.60;;;;;;;;;;5038839;28;20490;-50
2021/01/30 01:08:37;;;;;;;30.23;24.47;;;;;;;;;;5041880;28;20033;-50
2021/01/30 01:11:03;;;;;;;30.80;24.30;;;;;;;;;;5047917;28;20132;-51
2021/01/30 01:13:29;;;;;;;31.73;25.43;;;;;;;;;;5041917;28;20029;-50
2021/01/30 01:15:56;;;;;;;31.77;26.73;;;;;;;;;;5036683;28;20052;-54
2021/01/30 01:18:23;;;;;;;35.20;26.77;;;;;;;;;;5040964;28;20021;-54
2021/01/30 01:20:49;;;;;;;35.83;28.60;;;;;;;;;;5047368;28;20063;-49
2021/01/30 01:23:15;;;;;;;35.00;26.70;;;;;;;;;;5043727;28;20034;-52
2021/01/30 01:25:41;;;;;;;39.17;30.67;;;;;;;;;;5038547;28;20032;-51
2021/01/30 01:28:07;;;;;;;35.37;28.47;;;;;;;;;;5038789;28;20029;-52
2021/01/30 01:30:33;;;;;;;35.27;29.20;;;;;;;;;;5039107;28;20036;-50
2021/01/30 01:32:59;;;;;;;33.27;28.83;;;;;;;;;;5041395;28;20041;-51
2021/01/30 01:35:27;;;;;;;35.77;28.03;;;;;;;;;;5020641;28;20049;-54
2021/01/30 01:37:53;;;;;;;40.57;31.47;;;;;;;;;;5030839;28;20041;-50
2021/01/30 01:40:22;;;;;;;35.53;29.83;;;;;;;;;;5040996;28;20029;-53
2021/01/30 01:42:48;;;;;;;35.30;30.20;;;;;;;;;;5033501;28;20125;-53
2021/01/30 01:45:14;;;;;;;36.87;28.53;;;;;;;;;;5041472;28;20127;-52
2021/01/30 01:47:43;;;;;;;40.53;29.47;;;;;;;;;;5043301;28;20037;-55
2021/01/30 01:50:29;;;;;;;36.43;28.90;;;;;;;;;;5033829;28;20067;-52
2021/01/30 01:52:59;;;;;;;35.57;27.07;;;;;;;;;;5032295;28;20574;-51
2021/01/30 01:55:25;;;;;;;34.53;29.67;;;;;;;;;;5032543;28;20462;-52
2021/01/30 01:57:53;;;;;;;36.93;30.07;;;;;;;;;;5036311;28;20049;-50
2021/01/30 02:00:20;;;;;;;34.10;27.53;;;;;;;;;;5029490;28;20044;-50
2021/01/30 02:02:47;;;;;;;34.47;27.97;;;;;;;;;;5044344;28;20032;-52
2021/01/30 02:05:18;;;;;;;35.60;28.53;;;;;;;;;;5031682;28;20041;-52
2021/01/30 02:07:45;;;;;;;35.63;29.70;;;;;;;;;;5022009;28;20084;-54
2021/01/30 02:10:12;;;;;;;40.80;33.93;;;;;;;;;;5036494;28;20398;-54
2021/01/30 02:12:39;;;;;;;35.13;29.63;;;;;;;;;;5040469;28;20029;-51
2021/01/30 02:15:06;;;;;;;37.37;29.33;;;;;;;;;;5035460;28;20050;-51
2021/01/30 02:17:37;;;;;;;34.80;26.87;;;;;;;;;;5042208;28;20039;-51
2021/01/30 02:20:09;;;;;;;36.90;29.23;;;;;;;;;;5043531;28;20037;-50
2021/01/30 02:22:54;;;;;;;40.70;31.27;;;;;;;;;;5024958;28;20513;-51
2021/01/30 02:25:20;;;;;;;40.15;32.25;;;;;;;;;;5029599;28;20060;-55
2021/01/30 02:28:04;;;;;;;36.03;27.97;;;;;;;;;;5032826;28;20478;-58
2021/01/30 02:30:30;;;;;;;34.13;26.50;;;;;;;;;;5045659;28;20041;-55
2021/01/30 02:32:56;;;;;;;31.80;26.30;;;;;;;;;;5037102;28;20041;-54
2021/01/30 02:35:41;;;;;;;38.17;30.07;;;;;;;;;;5042687;28;20508;-52
2021/01/30 02:38:13;;;;;;;31.60;26.37;;;;;;;;;;5041425;28;20120;-54
2021/01/30 02:40:42;;;;;;;34.37;27.07;;;;;;;;;;5048335;28;20136;-53
2021/01/30 02:43:11;;;;;;;34.00;28.60;;;;;;;;;;5037889;28;20033;-52
2021/01/30 02:45:39;;;;;;;31.17;26.30;;;;;;;;;;5042302;28;20083;-55
2021/01/30 02:48:10;;;;;;;33.90;25.33;;;;;;;;;;5043628;28;20136;-53
2021/01/30 02:50:44;;;;;;;35.73;27.43;;;;;;;;;;5048379;28;20052;-51
2021/01/30 02:53:11;;;;;;;31.67;26.10;;;;;;;;;;5031726;28;20030;-51
2021/01/30 02:55:37;;;;;;;29.17;24.73;;;;;;;;;;5040985;28;20494;-51
2021/01/30 02:58:04;;;;;;;33.30;23.50;;;;;;;;;;5043825;28;20045;-51
2021/01/30 03:00:30;;;;;;;25.20;20.97;;;;;;;;;;5048381;28;20033;-52
2021/01/30 03:02:56;;;;;;;25.23;21.00;;;;;;;;;;5038277;28;20067;-54
2021/01/30 03:05:22;;;;;;;25.53;20.90;;;;;;;;;;5050654;28;20478;-51
2021/01/30 03:07:48;;;;;;;25.50;20.33;;;;;;;;;;5043018;28;20499;-50
2021/01/30 03:10:14;;;;;;;25.40;19.77;;;;;;;;;;5050505;28;20064;-50
2021/01/30 03:12:59;;;;;;;26.83;20.80;;;;;;;;;;5038208;28;20065;-50
2021/01/30 03:15:37;;;;;;;25.20;19.25;;;;;;;;;;5013143;28;20033;-51
2021/01/30 03:18:06;;;;;;;24.70;18.93;;;;;;;;;;5043358;28;20516;-50
2021/01/30 03:20:33;;;;;;;21.50;17.40;;;;;;;;;;5047649;28;20041;-49
2021/01/30 03:23:01;;;;;;;21.20;18.03;;;;;;;;;;5040871;28;20068;-54
2021/01/30 03:25:29;;;;;;;27.47;22.67;;;;;;;;;;5038907;28;20049;-50
2021/01/30 03:27:56;;;;;;;25.10;19.50;;;;;;;;;;5041967;28;20049;-50
2021/01/30 03:30:22;;;;;;;23.87;19.03;;;;;;;;;;5033442;28;20040;-50
2021/01/30 03:32:48;;;;;;;26.63;19.97;;;;;;;;;;5042059;28;20112;-52
2021/01/30 03:35:15;;;;;;;25.43;19.47;;;;;;;;;;5031165;28;20119;-52
2021/01/30 03:37:41;;;;;;;26.93;20.43;;;;;;;;;;5045026;28;20037;-50
2021/01/30 03:40:08;;;;;;;24.50;20.03;;;;;;;;;;5041323;28;20126;-53
2021/01/30 03:42:34;;;;;;;26.47;21.27;;;;;;;;;;5046330;28;20040;-52
2021/01/30 03:45:00;;;;;;;23.13;20.30;;;;;;;;;;5031002;28;20026;-53
2021/01/30 03:47:26;;;;;;;23.20;18.20;;;;;;;;;;5030915;28;20032;-51
2021/01/30 03:49:52;;;;;;;24.23;20.07;;;;;;;;;;5028219;28;20110;-51
2021/01/30 03:52:18;;;;;;;24.63;19.87;;;;;;;;;;5041805;28;20029;-52
2021/01/30 03:54:44;;;;;;;23.00;19.53;;;;;;;;;;5037564;28;20051;-50
2021/01/30 03:57:10;;;;;;;26.87;20.03;;;;;;;;;;5038483;28;20040;-52
2021/01/30 03:59:36;;;;;;;26.60;19.43;;;;;;;;;;5025048;28;20124;-52
2021/01/30 04:02:02;;;;;;;22.07;18.20;;;;;;;;;;5030776;28;20436;-53
2021/01/30 04:04:28;;;;;;;19.47;16.43;;;;;;;;;;5044932;28;20124;-50
2021/01/30 04:06:54;;;;;;;21.03;16.87;;;;;;;;;;5039333;28;20067;-51
2021/01/30 04:09:21;;;;;;;21.27;17.00;;;;;;;;;;5046290;28;20036;-50
2021/01/30 04:11:47;;;;;;;21.87;16.83;;;;;;;;;;5040815;28;20037;-53
2021/01/30 04:14:13;;;;;;;23.13;17.23;;;;;;;;;;5050930;28;20415;-51
2021/01/30 04:16:39;;;;;;;21.67;17.03;;;;;;;;;;5039203;28;20048;-52
2021/01/30 04:19:05;;;;;;;25.37;18.70;;;;;;;;;;5040130;28;20045;-50
2021/01/30 04:21:31;;;;;;;24.77;18.67;;;;;;;;;;5035106;28;20394;-55
2021/01/30 04:23:57;;;;;;;22.67;19.00;;;;;;;;;;5044456;28;20045;-55
2021/01/30 04:26:23;;;;;;;21.70;18.40;;;;;;;;;;5035312;28;20040;-54
2021/01/30 04:28:50;;;;;;;22.73;19.30;;;;;;;;;;5042534;28;20048;-54
2021/01/30 04:31:17;;;;;;;24.33;18.97;;;;;;;;;;5040311;28;20446;-54
2021/01/30 04:33:43;;;;;;;28.40;21.30;;;;;;;;;;5037524;28;20480;-52
2021/01/30 04:36:09;;;;;;;23.10;18.83;;;;;;;;;;5041567;28;20044;-56
2021/01/30 04:38:35;;;;;;;22.23;18.23;;;;;;;;;;5049762;28;20124;-54
2021/01/30 04:41:05;;;;;;;24.40;19.57;;;;;;;;;;5038195;28;20121;-51
2021/01/30 04:43:31;;;;;;;22.27;17.17;;;;;;;;;;5043009;28;20033;-50
2021/01/30 04:46:00;;;;;;;25.70;19.10;;;;;;;;;;5045285;28;20048;-54
2021/01/30 04:48:26;;;;;;;24.53;18.67;;;;;;;;;;5038724;28;20028;-56
2021/01/30 04:50:54;;;;;;;26.07;20.10;;;;;;;;;;5037719;28;20042;-52
2021/01/30 04:53:28;;;;;;;22.57;18.17;;;;;;;;;;5028334;28;20038;-51
2021/01/30 04:55:54;;;;;;;23.55;18.90;;;;;;;;;;5036026;28;20053;-54
2021/01/30 04:58:39;;;;;;;23.10;19.67;;;;;;;;;;5042878;28;20390;-54
2021/01/30 05:01:08;;;;;;;23.03;18.10;;;;;;;;;;5043706;28;20036;-51
2021/01/30 05:03:37;;;;;;;25.37;20.53;;;;;;;;;;5037631;28;20033;-53
2021/01/30 05:06:08;;;;;;;22.57;17.20;;;;;;;;;;5046372;28;20041;-50
2021/01/30 05:08:43;;;;;;;24.63;17.93;;;;;;;;;;5034144;28;20036;-52
2021/01/30 05:11:13;;;;;;;23.83;17.27;;;;;;;;;;5036450;28;20117;-49
2021/01/30 05:13:41;;;;;;;21.23;16.53;;;;;;;;;;5040871;28;20470;-50
2021/01/30 05:16:19;;;;;;;19.23;16.07;;;;;;;;;;5043229;28;20490;-50
2021/01/30 05:18:49;;;;;;;21.40;15.80;;;;;;;;;;5026575;28;20041;-52
2021/01/30 05:21:17;;;;;;;20.50;16.83;;;;;;;;;;5028648;28;20174;-50
2021/01/30 05:23:45;;;;;;;19.30;15.77;;;;;;;;;;5039113;28;20091;-53
2021/01/30 05:26:23;;;;;;;18.10;14.53;;;;;;;;;;5034167;28;20049;-52
2021/01/30 05:29:10;;;;;;;16.67;14.17;;;;;;;;;;5022749;28;20128;-54
2021/01/30 05:31:42;;;;;;;16.27;12.63;;;;;;;;;;5041132;28;20539;-50
2021/01/30 05:34:13;;;;;;;17.23;13.63;;;;;;;;;;5042437;28;20044;-52
2021/01/30 05:36:44;;;;;;;14.67;12.77;;;;;;;;;;5028572;28;20047;-53
2021/01/30 05:39:10;;;;;;;15.40;11.63;;;;;;;;;;5039720;28;20021;-50
2021/01/30 05:41:48;;;;;;;14.83;11.10;;;;;;;;;;5043564;28;20045;-49
2021/01/30 05:44:14;;;;;;;14.53;11.73;;;;;;;;;;5019269;28;20045;-54
2021/01/30 05:46:41;;;;;;;13.90;11.60;;;;;;;;;;5036791;28;20037;-53
2021/01/30 05:49:15;;;;;;;12.63;11.00;;;;;;;;;;5041877;28;20509;-51
2021/01/30 05:51:47;;;;;;;16.33;11.25;;;;;;;;;;5041022;28;20459;-52
2021/01/30 05:54:13;;;;;;;12.57;11.20;;;;;;;;;;5042557;28;20039;-52
2021/01/30 05:56:41;;;;;;;15.17;11.67;;;;;;;;;;5042511;28;20045;-52
2021/01/30 05:59:11;;;;;;;15.40;11.20;;;;;;;;;;5040605;28;20052;-49
2021/01/30 06:01:37;;;;;;;12.10;10.47;;;;;;;;;;5042866;28;20053;-52
2021/01/30 06:04:03;;;;;;;12.73;9.73;;;;;;;;;;5036287;28;20044;-54
2021/01/30 06:06:34;;;;;;;13.00;9.93;;;;;;;;;;5041858;28;20095;-51
2021/01/30 06:09:00;;;;;;;14.73;10.73;;;;;;;;;;5030471;28;20033;-50
2021/01/30 06:11:27;;;;;;;14.60;11.00;;;;;;;;;;5024418;28;20407;-52
2021/01/30 06:13:53;;;;;;;16.50;10.97;;;;;;;;;;5022819;28;20542;-49
2021/01/30 06:16:37;;;;;;;12.47;10.40;;;;;;;;;;5018784;28;20132;-49
2021/01/30 06:19:11;;;;;;;13.45;10.45;;;;;;;;;;5028325;28;20048;-52
2021/01/30 06:21:37;;;;;;;11.87;9.30;;;;;;;;;;5023161;28;20046;-55
2021/01/30 06:24:06;;;;;;;12.37;9.37;;;;;;;;;;5035172;28;20041;-55
2021/01/30 06:26:37;;;;;;;13.33;9.97;;;;;;;;;;5042326;28;20102;-51
2021/01/30 06:29:06;;;;;;;10.67;8.83;;;;;;;;;;5043892;28;20033;-52
2021/01/30 06:31:39;;;;;;;9.73;7.87;;;;;;;;;;5033504;28;20425;-54
2021/01/30 06:34:25;;;;;;;8.37;7.43;;;;;;;;;;5037831;28;20078;-52
2021/01/30 06:36:52;;;;;;;8.20;6.37;;;;;;;;;;5030987;28;20431;-51
2021/01/30 06:39:25;;;;;;;8.47;5.90;;;;;;;;;;5045917;28;20064;-55
2021/01/30 06:41:52;;;;;;;9.17;6.30;;;;;;;;;;5030126;28;20513;-50
2021/01/30 06:44:27;;;;;;;7.50;6.20;;;;;;;;;;5043877;28;20530;-52
2021/01/30 06:47:00;;;;;;;11.30;6.73;;;;;;;;;;5028997;28;20756;-51
2021/01/30 06:49:32;;;;;;;9.03;5.97;;;;;;;;;;5042567;28;20086;-54
2021/01/30 06:52:27;;;;;;;8.97;6.10;;;;;;;;;;5041733;28;20052;-51
2021/01/30 06:55:05;;;;;;;7.45;6.40;;;;;;;;;;4975079;28;20038;-53
2021/01/30 06:57:46;;;;;;;11.30;6.97;;;;;;;;;;5019185;28;20506;-55
2021/01/30 07:00:15;;;;;;;10.07;6.60;;;;;;;;;;5033561;28;20104;-52
2021/01/30 07:02:46;;;;;;;7.67;6.43;;;;;;;;;;5024382;28;20029;-52
2021/01/30 07:05:12;;;;;;;8.80;6.57;;;;;;;;;;5044909;28;20474;-54
2021/01/30 07:07:42;;;;;;;10.00;6.37;;;;;;;;;;5029306;28;20106;-51
2021/01/30 07:10:08;;;;;;;9.03;6.43;;;;;;;;;;5039496;28;20045;-51
2021/01/30 07:12:44;;;;;;;10.73;7.17;;;;;;;;;;5036087;28;20033;-50
2021/01/30 07:15:20;;;;;;;10.30;5.90;;;;;;;;;;5028091;28;20057;-50
2021/01/30 07:17:48;;;;;;;9.63;6.07;;;;;;;;;;5023441;28;20038;-50
2021/01/30 07:20:17;;;;;;;10.10;6.83;;;;;;;;;;5033426;28;20128;-52
2021/01/30 07:22:43;;;;;;;7.30;6.00;;;;;;;;;;5020082;28;20103;-52
2021/01/30 07:25:10;;;;;;;8.47;7.20;;;;;;;;;;5024830;28;20037;-55
2021/01/30 07:27:45;;;;;;;11.13;7.33;;;;;;;;;;5039859;28;20739;-50
2021/01/30 07:30:18;;;;;;;9.90;7.37;;;;;;;;;;5038021;28;20044;-51
2021/01/30 07:32:53;;;;;;;9.87;7.27;;;;;;;;;;5015491;28;20038;-51
2021/01/30 07:35:19;;;;;;;8.03;6.60;;;;;;;;;;5024244;28;20033;-51
2021/01/30 07:37:51;;;;;;;8.43;6.93;;;;;;;;;;5043525;28;20033;-53
2021/01/30 07:40:22;;;;;;;9.43;7.50;;;;;;;;;;5036405;28;20120;-57
2021/01/30 07:42:54;;;;;;;9.90;7.13;;;;;;;;;;5042546;28;20488;-52
2021/01/30 07:45:21;;;;;;;10.10;6.97;;;;;;;;;;5042166;28;20103;-50
2021/01/30 07:48:10;;;;;;;8.20;6.57;;;;;;;;;;5039671;28;20040;-57
2021/01/30 07:50:39;;;;;;;12.87;8.27;;;;;;;;;;5036560;28;20102;-52
2021/01/30 07:53:19;;;;;;;7.40;6.57;;;;;;;;;;5043881;28;20040;-50
2021/01/30 07:55:59;;;;;;;7.70;6.43;;;;;;;;;;5040581;28;20140;-50
2021/01/30 07:58:31;;;;;;;8.90;5.77;;;;;;;;;;5021704;28;20036;-52
2021/01/30 08:01:09;;;;;;;8.60;6.37;;;;;;;;;;5041271;28;20033;-53
2021/01/30 08:03:35;;;;;;;9.87;6.33;;;;;;;;;;5043036;28;20060;-51
2021/01/30 08:06:04;;;;;;;8.57;6.40;;;;;;;;;;5031817;28;20482;-55
2021/01/30 08:08:41;;;;;;;8.63;5.57;;;;;;;;;;5038572;28;20072;-55
2021/01/30 08:11:16;;;;;;;8.10;6.03;;;;;;;;;;5038502;28;20483;-50
2021/01/30 08:13:54;;;;;;;5.50;4.43;;;;;;;;;;5049407;28;20112;-55
2021/01/30 08:16:29;;;;;;;8.87;6.17;;;;;;;;;;5038824;28;20044;-53
2021/01/30 08:18:58;;;;;;;7.07;5.43;;;;;;;;;;5040296;28;20046;-53
2021/01/30 08:21:39;;;;;;;11.07;5.27;;;;;;;;;;5021149;28;20030;-52
2021/01/30 08:24:10;;;;;;;10.33;6.03;;;;;;;;;;5022203;28;20120;-55
2021/01/30 08:26:38;;;;;;;8.67;5.50;;;;;;;;;;5037362;28;20100;-55
2021/01/30 08:29:10;;;;;;;8.00;6.03;;;;;;;;;;5035381;28;20124;-51
2021/01/30 08:31:39;;;;;;;10.03;6.20;;;;;;;;;;5040465;28;20029;-51
2021/01/30 08:34:05;;;;;;;11.40;6.50;;;;;;;;;;5023817;28;20095;-55
2021/01/30 08:36:32;;;;;;;9.43;5.93;;;;;;;;;;5031090;28;20099;-51
2021/01/30 08:39:04;;;;;;;7.20;6.03;;;;;;;;;;5059606;28;20521;-50
2021/01/30 08:41:39;;;;;;;11.13;5.77;;;;;;;;;;5042542;28;20107;-52
2021/01/30 08:44:05;;;;;;;7.93;4.97;;;;;;;;;;5048308;28;20102;-51
2021/01/30 08:46:39;;;;;;;8.60;4.93;;;;;;;;;;5043194;28;20045;-52
2021/01/30 08:49:14;;;;;;;8.03;5.37;;;;;;;;;;5044863;28;20032;-51
2021/01/30 08:51:41;;;;;;;11.80;5.90;;;;;;;;;;5041959;28;20060;-50
2021/01/30 08:54:25;;;;;;;7.63;5.13;;;;;;;;;;5048785;28;20049;-54
2021/01/30 08:56:52;;;;;;;9.45;6.45;;;;;;;;;;5040074;28;20045;-53
2021/01/30 08:59:37;;;;;;;8.53;6.30;;;;;;;;;;5047453;28;20190;-57
2021/01/30 09:02:03;;;;;;;9.07;6.20;;;;;;;;;;5041558;28;20140;-50
2021/01/30 09:04:43;;;;;;;13.23;6.20;;;;;;;;;;5041471;28;20033;-54
2021/01/30 09:07:29;;;;;;;8.40;5.93;;;;;;;;;;5036548;28;20040;-52
2021/01/30 09:10:16;;;;;;;8.70;5.70;;;;;;;;;;5018335;28;20409;-52
2021/01/30 09:12:54;;;;;;;8.60;5.60;;;;;;;;;;5021493;28;20476;-53
2021/01/30 09:15:38;;;;;;;8.53;5.70;;;;;;;;;;5037931;28;20057;-55
2021/01/30 09:18:28;;;;;;;7.97;6.10;;;;;;;;;;5041030;28;20378;-51
2021/01/30 09:20:57;;;;;;;13.60;7.00;;;;;;;;;;5003015;28;20053;-51
2021/01/30 09:23:29;;;;;;;10.67;6.00;;;;;;;;;;5032718;28;20030;-52
2021/01/30 09:25:59;;;;;;;8.17;6.37;;;;;;;;;;5027341;28;20025;-52
2021/01/30 09:28:30;;;;;;;8.10;6.53;;;;;;;;;;5025951;28;20061;-52
2021/01/30 09:31:00;;;;;;;7.93;6.17;;;;;;;;;;5037337;28;20042;-51
2021/01/30 09:33:32;;;;;;;10.73;7.87;;;;;;;;;;5041456;28;20048;-53
2021/01/30 09:36:16;;;;;;;10.30;7.43;;;;;;;;;;5047057;28;20048;-51
2021/01/30 09:38:44;;;;;;;9.55;6.10;;;;;;;;;;5038994;28;20512;-51
2021/01/30 09:41:21;;;;;;;9.13;6.23;;;;;;;;;;5038676;28;20549;-51
2021/01/30 09:43:47;;;;;;;11.40;6.63;;;;;;;;;;5038100;28;20488;-55
2021/01/30 09:46:16;;;;;;;9.97;6.47;;;;;;;;;;5028375;28;20041;-52
2021/01/30 09:48:42;;;;;;;10.47;7.20;;;;;;;;;;5021444;28;20041;-53
2021/01/30 09:51:09;;;;;;;9.73;7.10;;;;;;;;;;5029600;28;20057;-52
2021/01/30 09:53:38;;;;;;;10.60;7.43;;;;;;;;;;5021766;28;20030;-51
2021/01/30 09:56:09;;;;;;;11.23;6.73;;;;;;;;;;5022205;28;20516;-51
2021/01/30 09:58:36;;;;;;;10.73;7.37;;;;;;;;;;5023323;28;20052;-51
2021/01/30 10:01:07;;;;;;;10.13;7.50;;;;;;;;;;5043573;28;20467;-52
2021/01/30 10:03:38;;;;;;;12.87;8.43;;;;;;;;;;5037549;28;20043;-52
2021/01/30 10:06:30;;;;;;;13.30;9.63;;;;;;;;;;5034678;28;20080;-52
2021/01/30 10:09:07;;;;;;;15.40;8.87;;;;;;;;;;5003446;28;20037;-55
2021/01/30 10:11:34;;;;;;;11.13;8.80;;;;;;;;;;5044493;28;20517;-55
2021/01/30 10:14:01;;;;;;;12.37;9.60;;;;;;;;;;5034257;28;20035;-51
2021/01/30 10:16:28;;;;;;;9.80;8.37;;;;;;;;;;5045030;28;20498;-54
2021/01/30 10:18:57;;;;;;;9.00;7.60;;;;;;;;;;5041057;28;20071;-55
2021/01/30 10:21:33;;;;;;;9.40;7.97;;;;;;;;;;5036470;28;20500;-54
2021/01/30 10:24:09;;;;;;;11.90;6.97;;;;;;;;;;5038397;28;20451;-55
2021/01/30 10:26:35;;;;;;;7.90;6.37;;;;;;;;;;5039947;28;20041;-53
2021/01/30 10:29:03;;;;;;;9.00;6.40;;;;;;;;;;5037003;28;20040;-54
2021/01/30 10:31:36;;;;;;;9.60;5.75;;;;;;;;;;5036223;28;20033;-53
2021/01/30 10:34:23;;;;;;;8.67;5.97;;;;;;;;;;5037682;28;20040;-52
2021/01/30 10:36:58;;;;;;;8.63;5.32;;;;;;;;;;5027862;28;20068;-56
2021/01/30 10:39:25;;;;;;;8.55;5.95;;;;;;;;;;5036840;28;20037;-55
2021/01/30 10:41:52;;;;;;;9.02;5.65;;;;;;;;;;5028004;28;20042;-56
2021/01/30 10:44:23;;;;;;;9.05;5.93;;;;;;;;;;5041880;28;20026;-55
2021/01/30 10:46:54;;;;;;;7.47;6.03;;;;;;;;;;5033632;28;20083;-53
2021/01/30 10:49:22;;;;;;;9.33;7.70;;;;;;;;;;5045084;28;20033;-54
2021/01/30 10:51:49;;;;;;;11.07;7.40;;;;;;;;;;5021622;28;20082;-56
2021/01/30 10:54:23;;;;;;;8.90;7.43;;;;;;;;;;5036733;28;20107;-54
2021/01/30 10:57:01;;;;;;;10.43;8.88;;;;;;;;;;5038744;28;20077;-54
2021/01/30 10:59:29;;;;;;;15.55;8.25;;;;;;;;;;5045995;28;20036;-56
2021/01/30 11:01:55;;;;;;;15.00;9.47;;;;;;;;;;5042938;28;20041;-53
2021/01/30 11:04:26;;;;;;;15.97;11.30;;;;;;;;;;5044444;28;20051;-54
2021/01/30 11:06:59;;;;;;;11.80;10.55;;;;;;;;;;5040688;28;20037;-54
2021/01/30 11:09:26;;;;;;;11.77;8.93;;;;;;;;;;5047638;28;20120;-57
2021/01/30 11:12:07;;;;;;;11.20;8.47;;;;;;;;;;5044515;28;20032;-55
2021/01/30 11:14:33;;;;;;;15.90;9.67;;;;;;;;;;5042799;28;20387;-52
2021/01/30 11:17:00;;;;;;;13.23;9.45;;;;;;;;;;5035602;28;20502;-55
2021/01/30 11:19:28;;;;;;;12.55;9.70;;;;;;;;;;5036333;28;20045;-51
2021/01/30 11:22:03;;;;;;;12.43;9.88;;;;;;;;;;5027847;28;20175;-54
2021/01/30 11:24:33;;;;;;;14.07;10.13;;;;;;;;;;5033786;28;20045;-52
2021/01/30 11:27:00;;;;;;;16.75;12.10;;;;;;;;;;5032237;28;20049;-52
2021/01/30 11:29:42;;;;;;;10.75;8.85;;;;;;;;;;5045271;28;20041;-56
2021/01/30 11:32:12;;;;;;;11.60;9.70;;;;;;;;;;5027494;28;20060;-52
2021/01/30 11:34:39;;;;;;;12.63;8.82;;;;;;;;;;5028548;28;20053;-54
2021/01/30 11:37:05;;;;;;;11.45;8.95;;;;;;;;;;5043602;28;20056;-56
2021/01/30 11:39:33;;;;;;;11.00;9.30;;;;;;;;;;5038800;28;20044;-56
2021/01/30 11:41:59;;;;;;;17.38;12.45;;;;;;;;;;5049988;28;20421;-52
2021/01/30 11:44:26;;;;;;;18.67;12.35;;;;;;;;;;5043634;28;20493;-52
2021/01/30 11:46:52;;;;;;;19.30;12.23;;;;;;;;;;5053082;28;20041;-55
2021/01/30 11:49:18;;;;;;;16.83;13.35;;;;;;;;;;5033239;28;20036;-51
2021/01/30 11:51:44;;;;;;;15.20;12.55;;;;;;;;;;5047242;28;20048;-53
2021/01/30 11:54:11;;;;;;;19.50;14.25;;;;;;;;;;5027617;28;20132;-52
2021/01/30 11:56:38;;;;;;;21.45;14.38;;;;;;;;;;5044349;28;20041;-52
2021/01/30 11:59:04;;;;;;;17.20;13.85;;;;;;;;;;5039421;28;20033;-51
2021/01/30 12:01:31;;;;;;;16.50;13.15;;;;;;;;;;5046193;28;20043;-56
2021/01/30 12:03:57;;;;;;;19.00;13.52;;;;;;;;;;5040642;28;20048;-56
2021/01/30 12:06:23;;;;;;;18.88;12.63;;;;;;;;;;5034571;28;20053;-57
2021/01/30 12:08:49;;;;;;;18.80;12.95;;;;;;;;;;5037092;28;20044;-56
2021/01/30 12:11:15;;;;;;;15.82;12.95;;;;;;;;;;5045792;28;20048;-55
2021/01/30 12:13:42;;;;;;;16.92;13.23;;;;;;;;;;5042314;28;20045;-55
2021/01/30 12:16:08;;;;;;;16.35;13.43;;;;;;;;;;5040643;28;20352;-55
2021/01/30 12:18:34;;;;;;;18.90;15.02;;;;;;;;;;5049540;28;20112;-52
2021/01/30 12:21:00;;;;;;;17.83;12.88;;;;;;;;;;5030108;28;20399;-55
2021/01/30 12:23:26;;;;;;;16.17;13.55;;;;;;;;;;5032807;28;20049;-54
2021/01/30 12:25:53;;;;;;;22.48;13.30;;;;;;;;;;5041470;28;20047;-54
2021/01/30 12:28:20;;;;;;;17.80;14.20;;;;;;;;;;5040374;28;20099;-58
2021/01/30 12:30:46;;;;;;;14.93;12.88;;;;;;;;;;5040476;28;20049;-55
2021/01/30 12:33:12;;;;;;;17.80;14.57;;;;;;;;;;5037060;28;20041;-54
2021/01/30 12:35:38;;;;;;;20.48;16.17;;;;;;;;;;5042132;28;22130;-53
2021/01/30 12:38:05;;;;;;;21.42;15.10;;;;;;;;;;5046354;28;20052;-55
2021/01/30 12:40:36;;;;;;;22.33;15.77;;;;;;;;;;5043119;28;20084;-55
2021/01/30 12:43:02;;;;;;;22.60;16.17;;;;;;;;;;5041003;28;20033;-53
2021/01/30 12:45:28;;;;;;;20.50;16.60;;;;;;;;;;5028151;28;20382;-52
2021/01/30 12:47:54;;;;;;;22.88;17.45;;;;;;;;;;5039703;28;20553;-54
2021/01/30 12:50:21;;;;;;;24.10;15.93;;;;;;;;;;5044847;28;20045;-52
2021/01/30 12:52:47;;;;;;;18.92;14.70;;;;;;;;;;5045111;28;20041;-52
2021/01/30 12:55:14;;;;;;;17.27;13.57;;;;;;;;;;5042973;28;20474;-56
2021/01/30 12:57:40;;;;;;;24.38;12.38;;;;;;;;;;5048334;28;20068;-52
2021/01/30 13:00:08;;;;;;;16.10;11.40;;;;;;;;;;5035106;28;20102;-50
2021/01/30 13:02:34;;;;;;;14.07;10.80;;;;;;;;;;5043512;28;20041;-51
2021/01/30 13:05:00;;;;;;;13.75;10.75;;;;;;;;;;5048085;28;20076;-54
2021/01/30 13:07:26;;;;;;;19.52;11.63;;;;;;;;;;5043503;28;20048;-55
2021/01/30 13:09:52;;;;;;;15.82;11.38;;;;;;;;;;5044607;28;20049;-51
2021/01/30 13:12:18;;;;;;;13.57;12.00;;;;;;;;;;5035221;28;20067;-52
2021/01/30 13:14:44;;;;;;;12.00;8.45;;;;;;;;;;5049715;28;20467;-54
2021/01/30 13:17:10;;;;;;;10.32;7.88;;;;;;;;;;5041077;28;20167;-52
2021/01/30 13:19:39;;;;;;;10.68;8.25;;;;;;;;;;5043189;28;20599;-52
2021/01/30 13:22:05;;;;;;;10.25;7.30;;;;;;;;;;5037111;28;20056;-52
2021/01/30 13:24:32;;;;;;;9.80;7.25;;;;;;;;;;5044026;28;20387;-54
2021/01/30 13:27:04;;;;;;;9.98;7.68;;;;;;;;;;5041588;28;20037;-52
2021/01/30 13:29:31;;;;;;;14.13;8.20;;;;;;;;;;5037817;28;20483;-52
2021/01/30 13:31:57;;;;;;;13.63;9.35;;;;;;;;;;5039179;28;20525;-55
2021/01/30 13:34:23;;;;;;;11.32;8.90;;;;;;;;;;5040325;28;20045;-51
2021/01/30 13:36:53;;;;;;;12.32;11.05;;;;;;;;;;5042024;28;20053;-60
2021/01/30 13:39:19;;;;;;;14.65;11.77;;;;;;;;;;5038739;28;20909;-53
2021/01/30 13:41:45;;;;;;;15.73;13.02;;;;;;;;;;5039876;28;20051;-53
2021/01/30 13:44:11;;;;;;;16.13;13.32;;;;;;;;;;5040412;28;20047;-53
2021/01/30 13:46:38;;;;;;;14.70;13.18;;;;;;;;;;5030610;28;20052;-51
2021/01/30 13:49:04;;;;;;;16.48;12.40;;;;;;;;;;5027835;28;20082;-52
2021/01/30 13:51:30;;;;;;;17.88;13.30;;;;;;;;;;5043696;28;20044;-54
2021/01/30 13:53:58;;;;;;;12.82;11.32;;;;;;;;;;5024689;28;20119;-56
2021/01/30 13:56:24;;;;;;;13.40;10.93;;;;;;;;;;5045978;28;20041;-55
2021/01/30 13:58:50;;;;;;;13.30;11.23;;;;;;;;;;5037828;28;20041;-56
2021/01/30 14:01:16;;;;;;;11.15;10.00;;;;;;;;;;5039277;28;20040;-55
2021/01/30 14:03:42;;;;;;;12.43;10.10;;;;;;;;;;5039215;28;20462;-51
2021/01/30 14:06:08;;;;;;;16.23;13.63;;;;;;;;;;5041966;28;20082;-55
2021/01/30 14:08:34;;;;;;;15.50;11.75;;;;;;;;;;5039454;28;20090;-56
2021/01/30 14:11:00;;;;;;;14.82;12.05;;;;;;;;;;5045443;28;20037;-54
2021/01/30 14:13:26;;;;;;;16.50;12.18;;;;;;;;;;5042333;28;20491;-51
2021/01/30 14:15:52;;;;;;;15.70;13.25;;;;;;;;;;5040202;28;20061;-52
2021/01/30 14:18:18;;;;;;;15.57;13.85;;;;;;;;;;5032754;28;20056;-54
2021/01/30 14:20:45;;;;;;;16.45;13.75;;;;;;;;;;5025795;28;20065;-52
2021/01/30 14:23:11;;;;;;;19.10;16.40;;;;;;;;;;5036834;28;20033;-54
2021/01/30 14:25:47;;;;;;;18.63;14.45;;;;;;;;;;5026028;28;20041;-53
2021/01/30 14:28:13;;;;;;;17.35;14.48;;;;;;;;;;5045429;28;20440;-52
2021/01/30 14:30:39;;;;;;;20.05;15.23;;;;;;;;;;5043420;28;20056;-51
2021/01/30 14:33:05;;;;;;;17.63;15.73;;;;;;;;;;5038685;28;20084;-55
2021/01/30 14:35:32;;;;;;;20.55;15.73;;;;;;;;;;5041431;28;20509;-52